createdAt,value
2024-04-11T00:00:02.472Z,14.25
2024-04-11T00:01:02.453Z,14.25
2024-04-11T00:02:02.399Z,14.29
2024-04-11T00:03:02.440Z,14.27
2024-04-11T00:04:02.658Z,14.26
2024-04-11T00:05:02.449Z,14.25
2024-04-11T00:06:02.406Z,14.45
2024-04-11T00:07:02.214Z,14.23
2024-04-11T00:08:02.181Z,14.09
2024-04-11T00:09:02.289Z,14.18
2024-04-11T00:10:02.207Z,14.22
2024-04-11T00:11:02.085Z,14.07
2024-04-11T00:12:02.164Z,14.08
2024-04-11T00:13:02.047Z,14.20
2024-04-11T00:14:02.015Z,14.14
2024-04-11T00:15:02.169Z,13.83
2024-04-11T00:16:01.985Z,14.22
2024-04-11T00:17:01.898Z,13.87
2024-04-11T00:18:01.993Z,13.93
2024-04-11T00:19:01.825Z,13.96
2024-04-11T00:20:01.811Z,13.88
2024-04-11T00:21:01.807Z,13.71
2024-04-11T00:22:01.695Z,14.07
2024-04-11T00:23:01.775Z,13.56
2024-04-11T00:24:01.735Z,13.70
2024-04-11T00:25:01.594Z,13.72
2024-04-11T00:26:01.571Z,13.68
2024-04-11T00:27:01.662Z,13.46
2024-04-11T00:28:01.736Z,13.40
2024-04-11T00:29:01.443Z,13.67
2024-04-11T00:30:01.611Z,13.47
2024-04-11T00:31:01.369Z,13.35
2024-04-11T00:32:01.336Z,13.58
2024-04-11T00:33:01.542Z,13.49
2024-04-11T00:34:01.429Z,13.54
2024-04-11T00:35:01.285Z,13.40
2024-04-11T00:36:01.585Z,13.69
2024-04-11T00:37:01.248Z,13.44
2024-04-11T00:38:01.210Z,13.17
2024-04-11T00:39:01.357Z,13.50
2024-04-11T00:40:01.131Z,13.30
2024-04-11T00:41:01.113Z,13.42
2024-04-11T00:42:01.126Z,13.28
2024-04-11T00:43:01.094Z,13.29
2024-04-11T00:44:01.062Z,13.18
2024-04-11T00:45:01.232Z,13.10
2024-04-11T00:46:00.988Z,13.14
2024-04-11T00:47:00.977Z,13.09
2024-04-11T00:48:01.159Z,13.17
2024-04-11T00:49:01.130Z,13.04
2024-04-11T00:50:01.735Z,12.99
2024-04-11T00:51:01.087Z,12.86
2024-04-11T00:52:00.848Z,12.91
2024-04-11T00:53:00.833Z,12.79
2024-04-11T00:54:00.961Z,12.78
2024-04-11T00:55:00.785Z,12.71
2024-04-11T00:56:00.792Z,12.82
2024-04-11T00:57:00.927Z,12.66
2024-04-11T00:58:00.692Z,12.63
2024-04-11T00:59:00.677Z,12.63
2024-04-11T01:00:00.778Z,12.61
2024-04-11T01:01:00.661Z,12.75
2024-04-11T01:02:00.545Z,12.74
2024-04-11T01:03:00.660Z,12.63
2024-04-11T01:04:00.871Z,12.34
2024-04-11T01:05:00.533Z,12.54
2024-04-11T01:06:00.541Z,12.54
2024-04-11T01:07:00.409Z,12.24
2024-04-11T01:08:00.384Z,12.32
2024-04-11T01:09:00.524Z,12.08
2024-04-11T01:10:00.371Z,12.09
2024-04-11T01:11:00.372Z,12.16
2024-04-11T01:12:00.312Z,12.23
2024-04-11T01:13:00.223Z,12.43
2024-04-11T01:14:00.204Z,12.48
2024-04-11T01:15:00.306Z,12.47
2024-04-11T01:16:00.147Z,12.39
2024-04-11T01:17:00.175Z,12.31
2024-04-11T01:18:00.183Z,12.35
2024-04-11T01:19:00.169Z,12.64
2024-04-11T01:20:00.002Z,12.30
2024-04-11T01:21:00.212Z,12.32
2024-04-11T01:21:59.920Z,12.17
2024-04-11T01:22:59.893Z,12.21
2024-04-11T01:24:00.062Z,12.13
2024-04-11T01:24:59.855Z,12.03
2024-04-11T01:25:59.803Z,12.33
2024-04-11T01:26:59.837Z,12.15
2024-04-11T01:27:59.764Z,12.09
2024-04-11T01:28:59.715Z,12.24
2024-04-11T01:29:59.790Z,11.92
2024-04-11T01:30:59.668Z,12.13
2024-04-11T01:31:59.672Z,11.87
2024-04-11T01:32:59.792Z,11.94
2024-04-11T01:33:59.858Z,11.93
2024-04-11T01:34:59.648Z,12.11
2024-04-11T01:35:59.623Z,11.90
2024-04-11T01:36:59.575Z,11.88
2024-04-11T01:37:59.602Z,11.96
2024-04-11T01:38:59.628Z,12.14
2024-04-11T01:39:59.542Z,11.61
2024-04-11T01:40:59.545Z,11.82
2024-04-11T01:41:59.625Z,11.82
2024-04-11T01:42:59.458Z,11.70
2024-04-11T01:43:59.427Z,11.80
2024-04-11T01:44:59.483Z,11.54
2024-04-11T01:45:59.403Z,11.51
2024-04-11T01:46:59.370Z,11.53
2024-04-11T01:47:59.460Z,11.86
2024-04-11T01:48:59.383Z,11.72
2024-04-11T01:49:59.320Z,11.43
2024-04-11T01:50:59.428Z,11.78
2024-04-11T01:51:59.321Z,11.65
2024-04-11T01:52:59.333Z,11.49
2024-04-11T01:53:59.366Z,11.22
2024-04-11T01:54:59.308Z,11.52
2024-04-11T01:55:59.306Z,11.50
2024-04-11T01:56:59.344Z,11.40
2024-04-11T01:57:59.283Z,11.39
2024-04-11T01:58:59.268Z,11.42
2024-04-11T01:59:59.312Z,11.43
2024-04-11T02:00:59.233Z,11.42
2024-04-11T02:01:59.188Z,11.42
2024-04-11T02:02:59.188Z,11.33
2024-04-11T02:03:59.297Z,11.32
2024-04-11T02:04:59.069Z,11.36
2024-04-11T02:05:59.100Z,11.22
2024-04-11T02:06:59.001Z,11.27
2024-04-11T02:07:58.960Z,11.08
2024-04-11T02:08:59.041Z,11.32
2024-04-11T02:09:58.888Z,11.16
2024-04-11T02:10:58.935Z,11.25
2024-04-11T02:11:58.917Z,11.24
2024-04-11T02:13:01.760Z,11.24
2024-04-11T02:13:58.768Z,11.27
2024-04-11T02:14:58.802Z,11.28
2024-04-11T02:15:58.681Z,11.26
2024-04-11T02:16:58.826Z,11.26
2024-04-11T02:17:59.192Z,11.24
2024-04-11T02:18:58.603Z,11.26
2024-04-11T02:19:58.551Z,11.18
2024-04-11T02:20:58.623Z,11.02
2024-04-11T02:21:58.491Z,10.95
2024-04-11T02:22:58.468Z,11.11
2024-04-11T02:23:58.520Z,11.23
2024-04-11T02:24:58.391Z,11.11
2024-04-11T02:25:58.441Z,11.08
2024-04-11T02:26:58.395Z,10.83
2024-04-11T02:27:58.298Z,10.81
2024-04-11T02:28:58.293Z,11.02
2024-04-11T02:29:58.367Z,10.78
2024-04-11T02:30:58.202Z,10.81
2024-04-11T02:31:58.143Z,10.65
2024-04-11T02:32:58.242Z,10.79
2024-04-11T02:33:58.202Z,10.72
2024-04-11T02:34:58.045Z,10.80
2024-04-11T02:35:58.127Z,10.65
2024-04-11T02:36:57.990Z,10.53
2024-04-11T02:37:57.943Z,10.78
2024-04-11T02:38:58.436Z,10.60
2024-04-11T02:39:57.915Z,10.66
2024-04-11T02:40:57.826Z,10.48
2024-04-11T02:41:57.812Z,10.47
2024-04-11T02:42:57.761Z,10.55
2024-04-11T02:43:57.728Z,10.61
2024-04-11T02:44:57.761Z,10.60
2024-04-11T02:45:57.651Z,10.57
2024-04-11T02:46:57.652Z,10.53
2024-04-11T02:47:57.678Z,10.34
2024-04-11T02:48:57.916Z,10.43
2024-04-11T02:49:57.505Z,10.43
2024-04-11T02:50:57.501Z,10.43
2024-04-11T02:51:57.442Z,10.44
2024-04-11T02:52:57.407Z,10.63
2024-04-11T02:53:57.362Z,10.50
2024-04-11T02:54:57.320Z,10.40
2024-04-11T02:55:57.305Z,10.46
2024-04-11T02:56:57.430Z,10.29
2024-04-11T02:57:57.236Z,10.41
2024-04-11T02:58:57.197Z,10.30
2024-04-11T02:59:57.309Z,10.32
2024-04-11T03:00:57.166Z,10.38
2024-04-11T03:01:57.092Z,10.43
2024-04-11T03:02:57.209Z,10.24
2024-04-11T03:03:57.137Z,10.24
2024-04-11T03:04:57.063Z,10.22
2024-04-11T03:05:57.032Z,10.30
2024-04-11T03:06:56.970Z,10.20
2024-04-11T03:07:56.919Z,10.17
2024-04-11T03:08:56.966Z,9.96
2024-04-11T03:09:56.861Z,9.97
2024-04-11T03:10:56.907Z,10.01
2024-04-11T03:11:56.827Z,10.08
2024-04-11T03:12:56.745Z,10.11
2024-04-11T03:13:56.721Z,10.21
2024-04-11T03:14:56.683Z,10.24
2024-04-11T03:15:56.811Z,10.04
2024-04-11T03:16:56.661Z,10.11
2024-04-11T03:17:56.717Z,9.93
2024-04-11T03:18:56.724Z,9.86
2024-04-11T03:19:56.502Z,9.59
2024-04-11T03:20:56.517Z,9.44
2024-04-11T03:21:56.433Z,8.74
2024-04-11T03:22:56.380Z,8.27
2024-04-11T03:23:56.460Z,7.50
2024-04-11T03:24:56.333Z,6.88
2024-04-11T03:25:56.382Z,6.36
2024-04-11T03:26:56.288Z,5.83
2024-04-11T03:27:56.239Z,5.33
2024-04-11T03:28:56.198Z,5.11
2024-04-11T03:29:56.249Z,4.67
2024-04-11T03:30:56.138Z,4.18
2024-04-11T03:31:56.109Z,4.04
2024-04-11T03:32:56.193Z,3.81
2024-04-11T03:33:56.125Z,3.28
2024-04-11T03:34:56.034Z,3.06
2024-04-11T03:35:56.113Z,3.07
2024-04-11T03:36:55.952Z,2.68
2024-04-11T03:37:55.923Z,2.44
2024-04-11T03:38:56.459Z,2.29
2024-04-11T03:39:55.867Z,2.20
2024-04-11T03:40:56.732Z,2.16
2024-04-11T03:41:55.882Z,1.95
2024-04-11T03:42:55.773Z,1.85
2024-04-11T03:43:55.762Z,1.71
2024-04-11T03:44:55.748Z,1.65
2024-04-11T03:45:55.679Z,1.51
2024-04-11T03:46:55.683Z,1.46
2024-04-11T03:47:55.755Z,1.41
2024-04-11T03:48:55.866Z,1.31
2024-04-11T03:49:55.706Z,1.29
2024-04-11T03:50:55.745Z,1.14
2024-04-11T03:51:55.766Z,1.15
2024-04-11T03:52:55.770Z,1.12
2024-04-11T03:53:55.871Z,1.09
2024-04-11T03:54:55.836Z,1.00
2024-04-11T03:55:55.859Z,0.97
2024-04-11T03:56:55.961Z,0.91
2024-04-11T03:57:55.947Z,0.89
2024-04-11T03:58:55.971Z,0.86
2024-04-11T03:59:56.051Z,0.79
2024-04-11T04:00:56.085Z,0.83
2024-04-11T04:01:56.075Z,0.76
2024-04-11T04:02:56.149Z,0.75
2024-04-11T04:03:56.329Z,0.72
2024-04-11T04:04:56.203Z,0.73
2024-04-11T04:05:56.276Z,0.71
2024-04-11T04:06:56.243Z,0.70
2024-04-11T04:07:56.290Z,0.69
2024-04-11T04:08:56.491Z,0.66
2024-04-11T04:09:56.375Z,0.64
2024-04-11T04:10:56.408Z,0.64
2024-04-11T04:11:56.648Z,0.64
2024-04-11T04:12:56.484Z,0.63
2024-04-11T04:13:56.520Z,0.64
2024-04-11T04:14:56.574Z,0.63
2024-04-11T04:15:56.617Z,0.63
2024-04-11T04:16:56.556Z,0.63
2024-04-11T04:17:56.625Z,0.63
2024-04-11T04:18:56.560Z,0.62
2024-04-11T04:19:56.471Z,0.62
2024-04-11T04:20:56.521Z,0.62
2024-04-11T04:21:56.417Z,0.61
2024-04-11T04:22:56.423Z,0.60
2024-04-11T04:24:56.370Z,0.61
2024-04-11T04:25:56.420Z,0.58
2024-04-11T04:26:56.480Z,0.59
2024-04-11T04:27:56.506Z,0.59
2024-04-11T04:28:56.554Z,0.58
2024-04-11T04:29:56.662Z,0.57
2024-04-11T04:30:58.624Z,0.57
2024-04-11T04:31:56.692Z,0.57
2024-04-11T04:32:56.861Z,0.56
2024-04-11T04:33:56.958Z,0.55
2024-04-11T04:34:56.789Z,0.55
2024-04-11T04:35:56.826Z,0.55
2024-04-11T04:36:56.737Z,0.56
2024-04-11T04:37:56.761Z,0.56
2024-04-11T04:38:56.834Z,0.57
2024-04-11T04:39:56.729Z,0.58
2024-04-11T04:40:56.705Z,0.57
2024-04-11T04:41:56.743Z,0.57
2024-04-11T04:42:56.669Z,0.58
2024-04-11T04:43:56.735Z,0.58
2024-04-11T04:44:56.850Z,0.58
2024-04-11T04:45:56.840Z,0.59
2024-04-11T04:47:04.214Z,0.50
2024-04-11T04:48:04.583Z,0.50
2024-04-11T04:49:04.596Z,0.50
2024-04-11T04:50:04.248Z,0.50
2024-04-11T04:51:04.325Z,0.50
2024-04-11T04:52:04.271Z,0.51
2024-04-11T04:53:04.275Z,0.52
2024-04-11T04:54:04.509Z,0.52
2024-04-11T04:55:04.300Z,0.52
2024-04-11T04:56:04.324Z,0.52
2024-04-11T04:57:04.524Z,0.53
2024-04-11T04:58:04.356Z,0.53
2024-04-11T04:59:04.515Z,0.54
2024-04-11T05:00:04.466Z,0.55
2024-04-11T05:01:04.466Z,0.54
2024-04-11T05:02:04.416Z,0.56
2024-04-11T05:03:04.546Z,0.56
2024-04-11T05:04:04.586Z,0.56
2024-04-11T05:05:04.505Z,0.56
2024-04-11T05:06:04.755Z,0.56
2024-04-11T05:07:04.448Z,0.56
2024-04-11T05:08:04.471Z,0.59
2024-04-11T05:09:04.523Z,0.58
2024-04-11T05:10:04.464Z,0.58
2024-04-11T05:11:04.528Z,0.57
2024-04-11T05:12:04.514Z,0.58
2024-04-11T05:13:04.484Z,0.58
2024-04-11T05:14:04.500Z,0.58
2024-04-11T05:15:04.718Z,0.59
2024-04-11T05:16:04.649Z,0.59
2024-04-11T05:17:04.606Z,0.60
2024-04-11T05:18:04.728Z,0.60
2024-04-11T05:19:04.722Z,0.60
2024-04-11T05:20:04.766Z,0.61
2024-04-11T05:21:04.873Z,0.62
2024-04-11T05:22:04.863Z,0.65
2024-04-11T05:23:04.921Z,0.66
2024-04-11T05:24:05.103Z,0.66
2024-04-11T05:25:05.031Z,0.68
2024-04-11T05:26:05.083Z,0.70
2024-04-11T05:27:05.242Z,0.73
2024-04-11T05:28:05.192Z,0.75
2024-04-11T05:29:05.243Z,0.76
2024-04-11T05:30:05.395Z,0.78
2024-04-11T05:31:05.353Z,0.81
2024-04-11T05:32:05.464Z,0.81
2024-04-11T05:33:05.551Z,0.81
2024-04-11T05:34:05.531Z,0.81
2024-04-11T05:35:05.389Z,0.81
2024-04-11T05:36:05.468Z,0.83
2024-04-11T05:37:05.428Z,0.85
2024-04-11T05:38:06.305Z,0.92
2024-04-11T05:39:05.865Z,0.94
2024-04-11T05:40:05.416Z,0.97
2024-04-11T05:41:05.434Z,0.96
2024-04-11T05:42:05.558Z,0.98
2024-04-11T05:43:05.475Z,0.98
2024-04-11T05:44:05.526Z,0.98
2024-04-11T05:45:05.633Z,1.00
2024-04-11T05:46:05.627Z,1.04
2024-04-11T05:47:05.705Z,1.02
2024-04-11T05:48:07.742Z,1.04
2024-04-11T05:49:06.229Z,1.04
2024-04-11T05:50:05.750Z,1.04
2024-04-11T05:51:05.907Z,1.04
2024-04-11T05:52:06.063Z,1.03
2024-04-11T05:53:05.754Z,1.03
2024-04-11T05:54:05.784Z,1.03
2024-04-11T05:55:05.791Z,1.03
2024-04-11T05:56:05.780Z,1.04
2024-04-11T05:57:05.915Z,1.02
2024-04-11T05:58:05.797Z,1.01
2024-04-11T05:59:05.816Z,1.00
2024-04-11T06:00:05.847Z,1.02
2024-04-11T06:01:06.016Z,1.02
2024-04-11T06:02:06.044Z,1.03
2024-04-11T06:03:06.132Z,1.05
2024-04-11T06:04:06.107Z,1.06
2024-04-11T06:05:06.400Z,1.06
2024-04-11T06:06:06.246Z,1.06
2024-04-11T06:07:06.269Z,1.07
2024-04-11T06:08:06.314Z,1.09
2024-04-11T06:09:06.537Z,1.08
2024-04-11T06:10:06.495Z,1.09
2024-04-11T06:11:06.549Z,1.07
2024-04-11T06:12:06.647Z,1.08
2024-04-11T06:13:06.686Z,1.09
2024-04-11T06:14:06.722Z,1.09
2024-04-11T06:15:06.821Z,1.09
2024-04-11T06:16:06.990Z,1.07
2024-04-11T06:17:06.893Z,1.06
2024-04-11T06:18:07.162Z,1.08
2024-04-11T06:19:07.138Z,1.05
2024-04-11T06:20:07.337Z,1.03
2024-04-11T06:21:07.138Z,1.02
2024-04-11T06:22:07.084Z,1.01
2024-04-11T06:23:07.108Z,1.00
2024-04-11T06:24:07.923Z,0.99
2024-04-11T06:25:07.139Z,0.96
2024-04-11T06:26:07.102Z,0.99
2024-04-11T06:27:07.340Z,0.97
2024-04-11T06:28:07.293Z,0.95
2024-04-11T06:29:07.148Z,0.94
2024-04-11T06:30:07.255Z,0.92
2024-04-11T06:31:07.266Z,0.94
2024-04-11T06:32:07.338Z,0.92
2024-04-11T06:33:07.504Z,0.90
2024-04-11T06:34:08.015Z,0.89
2024-04-11T06:35:07.462Z,0.92
2024-04-11T06:36:07.642Z,0.93
2024-04-11T06:37:07.561Z,0.95
2024-04-11T06:38:07.698Z,0.99
2024-04-11T06:39:07.738Z,0.99
2024-04-11T06:40:07.724Z,0.99
2024-04-11T06:41:07.786Z,1.01
2024-04-11T06:42:07.879Z,1.06
2024-04-11T06:43:07.880Z,1.06
2024-04-11T06:45:08.839Z,1.06
2024-04-11T06:46:08.075Z,1.06
2024-04-11T06:47:08.185Z,1.08
2024-04-11T06:48:09.011Z,1.09
2024-04-11T06:49:08.278Z,1.02
2024-04-11T06:50:08.291Z,1.01
2024-04-11T06:51:08.879Z,0.97
2024-04-11T06:52:08.479Z,0.97
2024-04-11T06:53:08.436Z,0.97
2024-04-11T06:54:08.510Z,0.91
2024-04-11T06:55:08.489Z,0.88
2024-04-11T06:56:08.533Z,0.87
2024-04-11T06:57:09.453Z,0.86
2024-04-11T06:58:08.567Z,0.84
2024-04-11T06:59:08.590Z,0.83
2024-04-11T07:00:08.605Z,0.82
2024-04-11T07:01:08.670Z,0.79
2024-04-11T07:02:08.734Z,0.78
2024-04-11T07:03:08.678Z,0.80
2024-04-11T07:04:08.725Z,0.78
2024-04-11T07:05:08.644Z,0.78
2024-04-11T07:06:10.467Z,0.77
2024-04-11T07:07:08.637Z,0.75
2024-04-11T07:08:08.643Z,0.74
2024-04-11T07:09:10.015Z,0.75
2024-04-11T07:10:08.689Z,0.72
2024-04-11T07:11:08.714Z,0.72
2024-04-11T07:12:08.697Z,0.75
2024-04-11T07:13:08.797Z,0.76
2024-04-11T07:14:08.706Z,0.74
2024-04-11T07:15:08.695Z,0.74
2024-04-11T07:16:08.700Z,0.70
2024-04-11T07:17:08.723Z,0.69
2024-04-11T07:18:08.887Z,0.69
2024-04-11T07:19:08.743Z,0.67
2024-04-11T07:20:08.730Z,0.65
2024-04-11T07:21:08.876Z,0.64
2024-04-11T07:22:08.745Z,0.60
2024-04-11T07:23:08.772Z,0.58
2024-04-11T07:24:09.674Z,0.54
2024-04-11T07:25:09.332Z,0.54
2024-04-11T07:26:09.332Z,0.53
2024-04-11T07:27:08.763Z,0.49
2024-04-11T07:28:08.815Z,0.52
2024-04-11T07:29:08.782Z,0.52
2024-04-11T07:30:08.795Z,0.47
2024-04-11T07:31:08.958Z,0.48
2024-04-11T07:32:08.801Z,0.46
2024-04-11T07:33:08.965Z,0.44
2024-04-11T07:34:08.927Z,0.41
2024-04-11T07:35:08.805Z,0.50
2024-04-11T07:36:08.851Z,0.50
2024-04-11T07:37:08.816Z,0.54
2024-04-11T07:38:08.797Z,0.53
2024-04-11T07:39:08.856Z,0.52
2024-04-11T07:40:08.805Z,0.51
2024-04-11T07:41:08.814Z,0.50
2024-04-11T07:42:08.836Z,0.50
2024-04-11T07:43:08.856Z,0.51
2024-04-11T07:44:09.403Z,0.50
2024-04-11T07:45:08.998Z,0.54
2024-04-11T07:46:08.856Z,0.50
2024-04-11T07:47:15.609Z,0.52
2024-04-11T07:48:11.774Z,0.47
2024-04-11T07:49:09.057Z,0.46
2024-04-11T07:50:08.910Z,0.47
2024-04-11T07:51:08.856Z,0.44
2024-04-11T07:52:08.976Z,0.46
2024-04-11T07:53:08.940Z,0.44
2024-04-11T07:54:08.878Z,0.45
2024-04-11T07:55:08.844Z,0.46
2024-04-11T07:56:08.884Z,0.49
2024-04-11T07:57:08.865Z,0.52
2024-04-11T07:58:08.868Z,0.52
2024-04-11T07:59:08.903Z,0.53
2024-04-11T08:00:08.980Z,0.53
2024-04-11T08:01:08.914Z,0.53
2024-04-11T08:02:08.889Z,0.56
2024-04-11T08:03:08.898Z,0.56
2024-04-11T08:04:08.910Z,0.58
2024-04-11T08:05:09.161Z,0.59
2024-04-11T08:06:09.055Z,0.58
2024-04-11T08:07:08.919Z,0.57
2024-04-11T08:08:08.918Z,0.59
2024-04-11T08:09:08.964Z,0.59
2024-04-11T08:10:08.929Z,0.61
2024-04-11T08:11:09.052Z,0.64
2024-04-11T08:12:09.071Z,0.65
2024-04-11T08:13:08.924Z,0.63
2024-04-11T08:14:09.982Z,0.65
2024-04-11T08:15:08.953Z,0.68
2024-04-11T08:16:09.043Z,0.73
2024-04-11T08:17:08.879Z,0.86
2024-04-11T08:18:09.070Z,0.95
2024-04-11T08:19:09.000Z,1.02
2024-04-11T08:20:09.069Z,1.09
2024-04-11T08:21:09.137Z,1.16
2024-04-11T08:22:09.127Z,1.26
2024-04-11T08:23:14.762Z,1.30
2024-04-11T08:24:10.189Z,1.30
2024-04-11T08:25:09.203Z,1.32
2024-04-11T08:26:09.180Z,1.35
2024-04-11T08:27:09.230Z,1.41
2024-04-11T08:28:09.174Z,1.44
2024-04-11T08:29:09.193Z,1.45
2024-04-11T08:30:09.177Z,1.45
2024-04-11T08:31:09.154Z,1.46
2024-04-11T08:32:09.172Z,1.48
2024-04-11T08:33:09.227Z,1.49
2024-04-11T08:34:09.190Z,1.53
2024-04-11T08:35:09.131Z,1.54
2024-04-11T08:36:09.123Z,1.49
2024-04-11T08:37:09.119Z,1.51
2024-04-11T08:38:09.133Z,1.52
2024-04-11T08:39:09.386Z,1.45
2024-04-11T08:40:09.244Z,1.46
2024-04-11T08:41:09.297Z,1.44
2024-04-11T08:42:09.333Z,1.40
2024-04-11T08:43:09.408Z,1.39
2024-04-11T08:44:09.515Z,1.31
2024-04-11T08:45:09.523Z,1.32
2024-04-11T08:46:09.584Z,1.27
2024-04-11T08:47:09.712Z,1.25
2024-04-11T08:48:09.847Z,1.24
2024-04-11T08:49:09.861Z,1.22
2024-04-11T08:50:09.976Z,1.21
2024-04-11T08:51:10.078Z,1.17
2024-04-11T08:52:09.910Z,1.15
2024-04-11T08:53:09.956Z,1.11
2024-04-11T08:54:10.064Z,1.09
2024-04-11T08:55:10.072Z,1.06
2024-04-11T08:56:10.357Z,1.03
2024-04-11T08:57:10.192Z,1.02
2024-04-11T08:58:10.214Z,1.00
2024-04-11T08:59:10.478Z,0.96
2024-04-11T09:00:10.424Z,0.94
2024-04-11T09:01:11.451Z,0.93
2024-04-11T09:02:10.497Z,0.91
2024-04-11T09:03:10.589Z,0.91
2024-04-11T09:04:10.736Z,0.86
2024-04-11T09:05:15.663Z,0.82
2024-04-11T09:06:10.626Z,0.78
2024-04-11T09:07:10.799Z,0.73
2024-04-11T09:08:10.572Z,0.69
2024-04-11T09:09:10.667Z,0.65
2024-04-11T09:10:10.557Z,0.64
2024-04-11T09:11:10.610Z,0.63
2024-04-11T09:12:10.654Z,0.63
2024-04-11T09:13:10.558Z,0.60
2024-04-11T09:14:10.594Z,0.57
2024-04-11T09:15:10.531Z,0.55
2024-04-11T09:16:10.617Z,0.54
2024-04-11T09:17:10.708Z,0.53
2024-04-11T09:18:10.760Z,0.53
2024-04-11T09:19:11.016Z,0.52
2024-04-11T09:20:10.797Z,0.52
2024-04-11T09:21:10.878Z,0.51
2024-04-11T09:22:10.885Z,0.53
2024-04-11T09:23:10.945Z,0.53
2024-04-11T09:24:10.987Z,0.52
2024-04-11T09:25:11.022Z,0.54
2024-04-11T09:26:11.058Z,0.54
2024-04-11T09:27:11.000Z,0.54
2024-04-11T09:28:10.985Z,0.55
2024-04-11T09:29:10.965Z,0.58
2024-04-11T09:30:10.994Z,0.63
2024-04-11T09:31:10.960Z,0.62
2024-04-11T09:32:10.934Z,0.61
2024-04-11T09:33:11.043Z,0.63
2024-04-11T09:34:11.022Z,0.63
2024-04-11T09:35:10.874Z,0.64
2024-04-11T09:36:10.971Z,0.65
2024-04-11T09:37:11.421Z,0.69
2024-04-11T09:38:10.830Z,0.77
2024-04-11T09:39:10.832Z,0.80
2024-04-11T09:40:10.840Z,0.84
2024-04-11T09:41:10.798Z,0.88
2024-04-11T09:42:10.782Z,0.88
2024-04-11T09:43:10.770Z,0.89
2024-04-11T09:44:10.893Z,0.92
2024-04-11T09:45:10.748Z,0.97
2024-04-11T09:46:10.915Z,1.05
2024-04-11T09:47:10.750Z,1.11
2024-04-11T09:48:10.741Z,1.18
2024-04-11T09:49:10.688Z,1.21
2024-04-11T09:50:10.807Z,1.29
2024-04-11T09:51:10.655Z,1.32
2024-04-11T09:52:10.630Z,1.37
2024-04-11T09:53:10.762Z,1.40
2024-04-11T09:54:10.628Z,1.36
2024-04-11T09:55:11.194Z,1.27
2024-04-11T09:56:10.698Z,1.03
2024-04-11T09:57:10.580Z,0.80
2024-04-11T09:58:10.565Z,0.62
2024-04-11T09:59:10.585Z,0.53
2024-04-11T10:00:10.731Z,0.50
2024-04-11T10:01:11.482Z,0.50
2024-04-11T10:02:10.725Z,0.49
2024-04-11T10:03:10.951Z,0.49
2024-04-11T10:04:10.874Z,0.50
2024-04-11T10:05:10.892Z,0.49
2024-04-11T10:06:11.012Z,0.49
2024-04-11T10:07:11.018Z,0.50
2024-04-11T10:08:11.110Z,0.51
2024-04-11T10:09:11.114Z,0.50
2024-04-11T10:10:11.446Z,0.51
2024-04-11T10:11:11.236Z,0.50
2024-04-11T10:12:11.315Z,0.51
2024-04-11T10:13:11.467Z,0.50
2024-04-11T10:14:11.359Z,0.50
2024-04-11T10:15:11.434Z,0.50
2024-04-11T10:16:11.463Z,0.50
2024-04-11T10:17:11.544Z,0.50
2024-04-11T10:18:12.510Z,0.51
2024-04-11T10:19:12.334Z,0.50
2024-04-11T10:20:11.678Z,0.51
2024-04-11T10:21:11.730Z,0.50
2024-04-11T10:22:11.768Z,0.50
2024-04-11T10:23:11.864Z,0.50
2024-04-11T10:24:11.924Z,0.50
2024-04-11T10:25:11.939Z,0.52
2024-04-11T10:26:11.897Z,0.52
2024-04-11T10:27:12.595Z,0.51
2024-04-11T10:28:11.880Z,0.52
2024-04-11T10:29:11.853Z,0.52
2024-04-11T10:30:11.946Z,0.53
2024-04-11T10:31:11.850Z,0.56
2024-04-11T10:32:11.858Z,0.52
2024-04-11T10:33:11.873Z,0.53
2024-04-11T10:34:12.112Z,0.56
2024-04-11T10:35:11.922Z,0.59
2024-04-11T10:36:12.276Z,0.66
2024-04-11T10:37:12.013Z,0.71
2024-04-11T10:38:11.784Z,0.71
2024-04-11T10:39:11.777Z,0.72
2024-04-11T10:40:12.035Z,0.76
2024-04-11T10:41:11.766Z,0.82
2024-04-11T10:42:11.778Z,0.98
2024-04-11T10:43:12.958Z,1.06
2024-04-11T10:44:11.731Z,1.16
2024-04-11T10:45:11.809Z,1.23
2024-04-11T10:46:11.737Z,1.32
2024-04-11T10:47:11.757Z,1.40
2024-04-11T10:48:12.019Z,1.44
2024-04-11T10:49:11.825Z,1.58
2024-04-11T10:50:11.893Z,1.65
2024-04-11T10:51:11.917Z,1.74
2024-04-11T10:52:11.945Z,1.83
2024-04-11T10:53:12.391Z,1.90
2024-04-11T10:54:11.999Z,1.95
2024-04-11T10:55:12.436Z,2.05
2024-04-11T10:56:13.264Z,2.05
2024-04-11T10:57:12.032Z,2.07
2024-04-11T10:58:11.990Z,2.19
2024-04-11T10:59:12.024Z,2.25
2024-04-11T11:00:11.977Z,2.28
2024-04-11T11:01:12.014Z,2.38
2024-04-11T11:02:11.982Z,2.47
2024-04-11T11:03:12.046Z,2.55
2024-04-11T11:04:11.978Z,2.62
2024-04-11T11:05:11.969Z,2.72
2024-04-11T11:06:11.923Z,2.72
2024-04-11T11:07:12.371Z,2.73
2024-04-11T11:08:11.929Z,2.78
2024-04-11T11:09:12.262Z,2.87
2024-04-11T11:10:11.930Z,2.99
2024-04-11T11:11:11.943Z,3.05
2024-04-11T11:12:13.584Z,3.23
2024-04-11T11:13:11.862Z,3.18
2024-04-11T11:14:11.848Z,3.28
2024-04-11T11:15:11.807Z,3.29
2024-04-11T11:16:11.900Z,3.38
2024-04-11T11:17:11.782Z,3.38
2024-04-11T11:18:11.865Z,3.39
2024-04-11T11:19:11.795Z,3.47
2024-04-11T11:20:11.839Z,3.50
2024-04-11T11:21:11.752Z,3.61
2024-04-11T11:22:11.720Z,3.52
2024-04-11T11:23:11.700Z,3.67
2024-04-11T11:24:11.691Z,3.66
2024-04-11T11:25:11.700Z,3.75
2024-04-11T11:26:11.750Z,3.81
2024-04-11T11:27:11.716Z,3.76
2024-04-11T11:28:11.849Z,3.75
2024-04-11T11:29:12.458Z,3.85
2024-04-11T11:30:12.500Z,3.88
2024-04-11T11:31:11.759Z,3.99
2024-04-11T11:32:11.803Z,4.01
2024-04-11T11:33:11.923Z,4.10
2024-04-11T11:34:12.159Z,4.17
2024-04-11T11:35:11.801Z,4.21
2024-04-11T11:36:11.829Z,4.33
2024-04-11T11:37:11.865Z,4.36
2024-04-11T11:38:11.890Z,4.28
2024-04-11T11:39:11.983Z,4.44
2024-04-11T11:40:12.034Z,4.46
2024-04-11T11:41:12.013Z,4.37
2024-04-11T11:42:12.010Z,4.55
2024-04-11T11:43:12.064Z,4.53
2024-04-11T11:44:12.145Z,4.49
2024-04-11T11:45:12.053Z,4.56
2024-04-11T11:46:11.978Z,4.51
2024-04-11T11:47:13.285Z,4.45
2024-04-11T11:48:12.189Z,4.54
2024-04-11T11:49:12.035Z,4.54
2024-04-11T11:50:12.069Z,4.56
2024-04-11T11:51:12.022Z,4.53
2024-04-11T11:52:12.126Z,4.67
2024-04-11T11:53:12.025Z,4.67
2024-04-11T11:54:12.120Z,4.65
2024-04-11T11:55:12.035Z,4.62
2024-04-11T11:56:12.033Z,4.69
2024-04-11T11:57:12.052Z,4.68
2024-04-11T11:58:12.077Z,4.64
2024-04-11T11:59:12.020Z,4.68
2024-04-11T12:00:12.058Z,4.54
2024-04-11T12:01:12.089Z,4.62
2024-04-11T12:02:12.108Z,4.68
2024-04-11T12:03:18.423Z,4.61
2024-04-11T12:04:13.318Z,4.58
2024-04-11T12:05:12.027Z,4.57
2024-04-11T12:06:12.059Z,4.56
2024-04-11T12:07:12.045Z,4.57
2024-04-11T12:08:12.006Z,4.58
2024-04-11T12:09:12.326Z,4.56
2024-04-11T12:10:12.007Z,4.46
2024-04-11T12:11:12.139Z,4.43
2024-04-11T12:12:12.079Z,4.38
2024-04-11T12:13:11.872Z,4.38
2024-04-11T12:14:11.874Z,4.38
2024-04-11T12:15:11.921Z,4.41
2024-04-11T12:16:12.099Z,4.43
2024-04-11T12:17:11.839Z,4.47
2024-04-11T12:18:11.873Z,4.47
2024-04-11T12:19:12.126Z,4.27
2024-04-11T12:20:11.848Z,4.25
2024-04-11T12:21:11.820Z,4.17
2024-04-11T12:22:11.814Z,4.29
2024-04-11T12:23:11.803Z,4.13
2024-04-11T12:24:11.856Z,4.09
2024-04-11T12:25:11.848Z,4.21
2024-04-11T12:26:11.760Z,4.09
2024-04-11T12:27:11.779Z,4.12
2024-04-11T12:28:11.750Z,4.03
2024-04-11T12:29:11.733Z,3.97
2024-04-11T12:30:11.773Z,3.98
2024-04-11T12:31:13.570Z,3.97
2024-04-11T12:32:11.693Z,3.96
2024-04-11T12:33:11.759Z,4.00
2024-04-11T12:34:11.716Z,4.00
2024-04-11T12:35:11.740Z,4.00
2024-04-11T12:36:11.678Z,3.92
2024-04-11T12:37:11.633Z,3.88
2024-04-11T12:38:11.614Z,3.89
2024-04-11T12:39:11.599Z,3.80
2024-04-11T12:40:12.267Z,3.83
2024-04-11T12:41:11.612Z,3.90
2024-04-11T12:42:11.589Z,3.83
2024-04-11T12:43:14.995Z,3.79
2024-04-11T12:44:11.520Z,3.79
2024-04-11T12:45:11.609Z,3.91
2024-04-11T12:46:11.480Z,3.86
2024-04-11T12:47:11.547Z,3.72
2024-04-11T12:48:11.607Z,3.79
2024-04-11T12:49:11.478Z,3.77
2024-04-11T12:50:11.438Z,3.79
2024-04-11T12:51:11.409Z,3.71
2024-04-11T12:52:11.389Z,3.73
2024-04-11T12:53:11.364Z,3.74
2024-04-11T12:54:11.364Z,3.82
2024-04-11T12:55:11.362Z,3.79
2024-04-11T12:56:11.351Z,3.73
2024-04-11T12:57:11.367Z,3.82
2024-04-11T12:58:11.283Z,3.90
2024-04-11T12:59:11.285Z,3.85
2024-04-11T13:00:11.576Z,3.77
2024-04-11T13:01:11.311Z,3.82
2024-04-11T13:02:11.695Z,3.82
2024-04-11T13:03:11.355Z,3.75
2024-04-11T13:04:11.199Z,3.71
2024-04-11T13:05:11.298Z,3.73
2024-04-11T13:06:11.261Z,3.73
2024-04-11T13:07:11.308Z,3.72
2024-04-11T13:08:17.910Z,3.72
2024-04-11T13:09:12.275Z,3.72
2024-04-11T13:10:11.121Z,3.72
2024-04-11T13:11:11.185Z,3.77
2024-04-11T13:12:11.171Z,3.72
2024-04-11T13:13:11.074Z,3.74